Current Weather

Trenton Mercer

Trenton, New Jersey (KTTN)

Report from: Wednesday, May 29, 2024 4:53 AM EDT
Current time: Wednesday, May 29, 2024 5:48 AM EDT

Nearby weather – Weather history – Daily summaries
Weather forecast

Temperature13.3°C (55.9°F)
Dew point11.7°C (53.1°F)
Winds 4 kts (2.1 m/s, 4.6 mph) Northwest (310°)
Visibility10 mi. (16.1 km)
Clouds Sky clear
Altimeter29.88 in.Hg (1012 mB)
Relative humidity90 %
Density altitude64 ft. (19 m)
Sea-level pressure101.1 kPa (1011 mB, 29.86 in.Hg)
Remarks Fully automated report
Automated weather observing station with precipitation discriminator
Pressure rising more quickly
Flight conditions Visual Meteorological Conditions
Raw dataKTTN 290853Z AUTO 31004KT 10SM CLR 13/12 A2988 RMK AO2 SLP111 T01330117 53002
An error has occurred. This application may no longer respond until reloaded. Reload 🗙